This is the latest recevied weather packets stored in our database for station/object KK7AZD-13. If no packets are shown the sender has not sent any weather packets the latest 1 day(s).
| Time | Temp. | Humidity | Pressure | Rain* | Wind** | Luminosity | Snow |
|---|---|---|---|---|---|---|---|
| 1836274743 | 21.67° C | 57% | 1016.1 hPa | 0 mm | 2.24 m/s, 327° | 0 W/m² | - |
| 1778050908 | 10° C | 80% | 1017.2 hPa | 0 mm | 0.45 m/s, 4° | 0 W/m² | - |
| 1778050005 | 10.56° C | 79% | 1017.1 hPa | 0 mm | 0.45 m/s, 33° | 0 W/m² | - |
| 1778049101 | 10° C | 81% | 1017.3 hPa | 0 mm | 0.45 m/s, 19° | 0 W/m² | - |
| 1778048198 | 9.44° C | 82% | 1017 hPa | 0 mm | 0.45 m/s, 14° | 0 W/m² | - |
| 1778047297 | 11.11° C | 77% | 1016.6 hPa | 0 mm | 0.89 m/s, 43° | 0 W/m² | - |
| 1778046394 | 10.56° C | 79% | 1016.7 hPa | 0 mm | 0 m/s | 0 W/m² | - |
| 1778045492 | 10.56° C | 78% | 1016.5 hPa | 0 mm | 0 m/s | 0 W/m² | - |
| 1778044590 | 11.67° C | 73% | 1016.6 hPa | 0 mm | 0.89 m/s, 349° | 0 W/m² | - |
| 1778043688 | 12.78° C | 72% | 1016.4 hPa | 0 mm | 0.89 m/s, 353° | 0 W/m² | - |
| 1778042785 | 12.22° C | 73% | 1016.5 hPa | 0 mm | 0.45 m/s, 28° | 0 W/m² | - |
| 1778041883 | 13.33° C | 69% | 1016 hPa | 0 mm | 0.45 m/s, 9° | 0 W/m² | - |
| 1778040977 | 14.44° C | 63% | 1016.1 hPa | 0 mm | 0.89 m/s, 10° | 0 W/m² | - |
| 1778040074 | 13.89° C | 65% | 1015.8 hPa | 0 mm | 0.45 m/s, 35° | 0 W/m² | - |
| 1778039171 | 15.56° C | 63% | 1015.7 hPa | 0 mm | 0 m/s | 0 W/m² | - |
| 1778038268 | 16.67° C | 58% | 1015.2 hPa | 0 mm | 1.34 m/s, 341° | 0 W/m² | - |
| 1778037365 | 17.22° C | 58% | 1014.9 hPa | 0 mm | 0.89 m/s, 319° | 1 W/m² | - |
| 1778036463 | 17.78° C | 54% | 1014.9 hPa | 0 mm | 2.24 m/s, 324° | 10 W/m² | - |
| 1778035559 | 18.33° C | 53% | 1014.5 hPa | 0 mm | 3.13 m/s, 299° | 20 W/m² | - |
| 1778034655 | 18.89° C | 53% | 1014.5 hPa | 0 mm | 3.13 m/s, 264° | 34 W/m² | - |
| 1778033753 | 19.44° C | 53% | 1014 hPa | 0 mm | 2.68 m/s, 40° | 49 W/m² | - |
| 1778032850 | 20° C | 52% | 1013.9 hPa | 0 mm | 1.79 m/s, 9° | 99 W/m² | - |
| 1778031948 | 20° C | 53% | 1013.9 hPa | 0 mm | 2.24 m/s, 269° | 139 W/m² | - |
| 1778031044 | 20.56° C | 51% | 1013.7 hPa | 0 mm | 4.02 m/s, 309° | 153 W/m² | - |
| 1778030140 | 20.56° C | 50% | 1013.8 hPa | 0 mm | 3.13 m/s, 271° | 234 W/m² | - |
* Rain latest hour (hover to see other rain measurements)
** Current wind speed in m/s (hover to see current wind gust speed)